sensor_id;sensor_type;location;lat;lon;timestamp;P1;durP1;ratioP1;P2;durP2;ratioP2
1725;SDS011;41776;48.260;8.928;2022-08-19T00:00:03;88.57;;;42.88;;
1725;SDS011;41776;48.260;8.928;2022-08-19T00:02:31;90.55;;;42.75;;
1725;SDS011;41776;48.260;8.928;2022-08-19T00:04:57;84.63;;;42.00;;
1725;SDS011;41776;48.260;8.928;2022-08-19T00:07:24;88.72;;;43.20;;
1725;SDS011;41776;48.260;8.928;2022-08-19T00:09:52;100.43;;;45.20;;
1725;SDS011;41776;48.260;8.928;2022-08-19T00:12:18;109.97;;;44.67;;
1725;SDS011;41776;48.260;8.928;2022-08-19T00:14:45;111.63;;;47.97;;
1725;SDS011;41776;48.260;8.928;2022-08-19T00:17:11;110.30;;;46.35;;
1725;SDS011;41776;48.260;8.928;2022-08-19T00:19:38;117.05;;;46.83;;
1725;SDS011;41776;48.260;8.928;2022-08-19T00:22:05;119.10;;;47.10;;
1725;SDS011;41776;48.260;8.928;2022-08-19T00:24:33;120.72;;;49.00;;
1725;SDS011;41776;48.260;8.928;2022-08-19T00:27:01;122.35;;;48.50;;
1725;SDS011;41776;48.260;8.928;2022-08-19T00:29:28;112.40;;;46.92;;
1725;SDS011;41776;48.260;8.928;2022-08-19T00:31:55;118.25;;;46.78;;
1725;SDS011;41776;48.260;8.928;2022-08-19T00:34:23;112.53;;;47.10;;
1725;SDS011;41776;48.260;8.928;2022-08-19T00:36:53;113.05;;;46.30;;
1725;SDS011;41776;48.260;8.928;2022-08-19T00:39:20;112.30;;;46.05;;
1725;SDS011;41776;48.260;8.928;2022-08-19T00:41:47;106.07;;;45.25;;
1725;SDS011;41776;48.260;8.928;2022-08-19T00:44:17;108.45;;;45.78;;
1725;SDS011;41776;48.260;8.928;2022-08-19T00:46:46;105.50;;;45.03;;
1725;SDS011;41776;48.260;8.928;2022-08-19T00:49:15;103.47;;;43.15;;
1725;SDS011;41776;48.260;8.928;2022-08-19T00:51:45;106.47;;;44.67;;
1725;SDS011;41776;48.260;8.928;2022-08-19T00:54:14;94.50;;;43.03;;
1725;SDS011;41776;48.260;8.928;2022-08-19T00:56:42;100.35;;;42.95;;
1725;SDS011;41776;48.260;8.928;2022-08-19T00:59:10;95.50;;;42.03;;
1725;SDS011;41776;48.260;8.928;2022-08-19T01:01:39;89.45;;;39.72;;
1725;SDS011;41776;48.260;8.928;2022-08-19T01:04:07;90.25;;;38.35;;
1725;SDS011;41776;48.260;8.928;2022-08-19T01:06:35;86.85;;;38.28;;
1725;SDS011;41776;48.260;8.928;2022-08-19T01:09:02;85.15;;;37.05;;
1725;SDS011;41776;48.260;8.928;2022-08-19T01:11:29;77.45;;;36.10;;
1725;SDS011;41776;48.260;8.928;2022-08-19T01:13:57;82.13;;;37.58;;
1725;SDS011;41776;48.260;8.928;2022-08-19T01:16:25;77.82;;;36.50;;
1725;SDS011;41776;48.260;8.928;2022-08-19T01:18:55;85.18;;;37.85;;
1725;SDS011;41776;48.260;8.928;2022-08-19T01:21:24;80.72;;;36.22;;
1725;SDS011;41776;48.260;8.928;2022-08-19T01:23:58;82.50;;;37.40;;
1725;SDS011;41776;48.260;8.928;2022-08-19T01:26:25;78.70;;;37.35;;
1725;SDS011;41776;48.260;8.928;2022-08-19T01:28:54;83.93;;;38.90;;
1725;SDS011;41776;48.260;8.928;2022-08-19T01:31:22;85.30;;;38.75;;
1725;SDS011;41776;48.260;8.928;2022-08-19T01:33:51;91.90;;;39.78;;
1725;SDS011;41776;48.260;8.928;2022-08-19T01:36:21;89.63;;;39.38;;
1725;SDS011;41776;48.260;8.928;2022-08-19T01:38:50;87.10;;;39.80;;
1725;SDS011;41776;48.260;8.928;2022-08-19T01:41:18;88.93;;;38.72;;
1725;SDS011;41776;48.260;8.928;2022-08-19T01:43:45;92.72;;;40.03;;
1725;SDS011;41776;48.260;8.928;2022-08-19T01:46:12;77.00;;;36.38;;
1725;SDS011;41776;48.260;8.928;2022-08-19T01:48:39;78.00;;;36.75;;
1725;SDS011;41776;48.260;8.928;2022-08-19T01:51:08;90.90;;;40.03;;
1725;SDS011;41776;48.260;8.928;2022-08-19T01:53:36;90.90;;;40.42;;
1725;SDS011;41776;48.260;8.928;2022-08-19T01:56:03;93.63;;;42.55;;
1725;SDS011;41776;48.260;8.928;2022-08-19T01:58:34;89.38;;;41.00;;
1725;SDS011;41776;48.260;8.928;2022-08-19T02:01:04;84.00;;;38.40;;
1725;SDS011;41776;48.260;8.928;2022-08-19T02:03:31;90.38;;;39.08;;
1725;SDS011;41776;48.260;8.928;2022-08-19T02:06:00;88.53;;;39.28;;
1725;SDS011;41776;48.260;8.928;2022-08-19T02:08:28;86.40;;;38.90;;
1725;SDS011;41776;48.260;8.928;2022-08-19T02:10:55;89.20;;;38.78;;
1725;SDS011;41776;48.260;8.928;2022-08-19T02:13:23;86.50;;;38.60;;
1725;SDS011;41776;48.260;8.928;2022-08-19T02:15:51;79.82;;;36.72;;
1725;SDS011;41776;48.260;8.928;2022-08-19T02:18:17;93.13;;;39.45;;
1725;SDS011;41776;48.260;8.928;2022-08-19T02:20:44;79.65;;;36.17;;
1725;SDS011;41776;48.260;8.928;2022-08-19T02:23:12;84.32;;;37.30;;
1725;SDS011;41776;48.260;8.928;2022-08-19T02:25:40;91.90;;;37.10;;
1725;SDS011;41776;48.260;8.928;2022-08-19T02:28:07;88.40;;;38.63;;
1725;SDS011;41776;48.260;8.928;2022-08-19T02:30:34;85.60;;;37.95;;
1725;SDS011;41776;48.260;8.928;2022-08-19T02:33:01;88.43;;;37.70;;
1725;SDS011;41776;48.260;8.928;2022-08-19T02:35:28;92.97;;;36.90;;
1725;SDS011;41776;48.260;8.928;2022-08-19T02:37:54;98.10;;;37.28;;
1725;SDS011;41776;48.260;8.928;2022-08-19T02:40:38;84.03;;;34.60;;
1725;SDS011;41776;48.260;8.928;2022-08-19T02:43:06;87.43;;;37.45;;
1725;SDS011;41776;48.260;8.928;2022-08-19T02:45:34;85.65;;;35.75;;
1725;SDS011;41776;48.260;8.928;2022-08-19T02:48:03;87.75;;;35.88;;
1725;SDS011;41776;48.260;8.928;2022-08-19T02:50:30;102.18;;;40.13;;
1725;SDS011;41776;48.260;8.928;2022-08-19T02:52:57;102.90;;;39.28;;
1725;SDS011;41776;48.260;8.928;2022-08-19T02:55:23;97.40;;;43.38;;
1725;SDS011;41776;48.260;8.928;2022-08-19T02:57:50;81.43;;;34.88;;
1725;SDS011;41776;48.260;8.928;2022-08-19T03:00:16;94.57;;;37.00;;
1725;SDS011;41776;48.260;8.928;2022-08-19T03:02:43;85.25;;;37.00;;
1725;SDS011;41776;48.260;8.928;2022-08-19T03:05:13;82.68;;;35.25;;
1725;SDS011;41776;48.260;8.928;2022-08-19T03:07:39;98.18;;;36.72;;
1725;SDS011;41776;48.260;8.928;2022-08-19T03:10:06;90.07;;;37.15;;
1725;SDS011;41776;48.260;8.928;2022-08-19T03:12:34;104.82;;;38.92;;
1725;SDS011;41776;48.260;8.928;2022-08-19T03:15:02;86.55;;;35.58;;
1725;SDS011;41776;48.260;8.928;2022-08-19T03:17:29;82.22;;;34.30;;
1725;SDS011;41776;48.260;8.928;2022-08-19T03:19:55;90.90;;;35.67;;
1725;SDS011;41776;48.260;8.928;2022-08-19T03:22:23;83.28;;;35.13;;
1725;SDS011;41776;48.260;8.928;2022-08-19T03:24:50;96.03;;;36.53;;
1725;SDS011;41776;48.260;8.928;2022-08-19T03:27:16;80.53;;;34.10;;
1725;SDS011;41776;48.260;8.928;2022-08-19T03:29:43;89.05;;;34.30;;
1725;SDS011;41776;48.260;8.928;2022-08-19T03:32:10;82.72;;;33.33;;
1725;SDS011;41776;48.260;8.928;2022-08-19T03:34:37;96.65;;;36.35;;
1725;SDS011;41776;48.260;8.928;2022-08-19T03:37:05;90.03;;;35.83;;
1725;SDS011;41776;48.260;8.928;2022-08-19T03:39:35;89.18;;;35.17;;
1725;SDS011;41776;48.260;8.928;2022-08-19T03:42:02;96.75;;;37.33;;
1725;SDS011;41776;48.260;8.928;2022-08-19T03:44:30;88.43;;;37.55;;
1725;SDS011;41776;48.260;8.928;2022-08-19T03:46:58;95.43;;;37.45;;
1725;SDS011;41776;48.260;8.928;2022-08-19T03:49:26;79.90;;;33.35;;
1725;SDS011;41776;48.260;8.928;2022-08-19T03:51:55;93.32;;;38.63;;
1725;SDS011;41776;48.260;8.928;2022-08-19T03:54:25;92.30;;;38.28;;
1725;SDS011;41776;48.260;8.928;2022-08-19T03:56:54;101.80;;;38.72;;
1725;SDS011;41776;48.260;8.928;2022-08-19T03:59:23;97.68;;;38.85;;
1725;SDS011;41776;48.260;8.928;2022-08-19T04:01:51;93.78;;;36.42;;
1725;SDS011;41776;48.260;8.928;2022-08-19T04:04:18;88.30;;;33.97;;
1725;SDS011;41776;48.260;8.928;2022-08-19T04:06:44;92.63;;;38.08;;
1725;SDS011;41776;48.260;8.928;2022-08-19T04:09:12;86.05;;;36.03;;
1725;SDS011;41776;48.260;8.928;2022-08-19T04:11:39;84.25;;;36.80;;
1725;SDS011;41776;48.260;8.928;2022-08-19T04:14:08;98.03;;;38.60;;
1725;SDS011;41776;48.260;8.928;2022-08-19T04:16:35;97.75;;;37.90;;
1725;SDS011;41776;48.260;8.928;2022-08-19T04:19:03;106.82;;;39.28;;
1725;SDS011;41776;48.260;8.928;2022-08-19T04:21:31;108.00;;;39.75;;
1725;SDS011;41776;48.260;8.928;2022-08-19T04:23:58;112.78;;;40.58;;
1725;SDS011;41776;48.260;8.928;2022-08-19T04:26:25;101.07;;;39.78;;
1725;SDS011;41776;48.260;8.928;2022-08-19T04:28:53;101.20;;;40.05;;
1725;SDS011;41776;48.260;8.928;2022-08-19T04:31:22;104.75;;;40.00;;
1725;SDS011;41776;48.260;8.928;2022-08-19T04:33:51;104.22;;;39.38;;
1725;SDS011;41776;48.260;8.928;2022-08-19T04:36:18;110.55;;;40.83;;
1725;SDS011;41776;48.260;8.928;2022-08-19T04:38:46;99.57;;;40.30;;
1725;SDS011;41776;48.260;8.928;2022-08-19T04:41:13;107.55;;;39.30;;
1725;SDS011;41776;48.260;8.928;2022-08-19T04:43:57;101.43;;;39.28;;
1725;SDS011;41776;48.260;8.928;2022-08-19T04:46:25;89.78;;;37.55;;
1725;SDS011;41776;48.260;8.928;2022-08-19T04:48:52;96.75;;;38.83;;
1725;SDS011;41776;48.260;8.928;2022-08-19T04:51:21;97.70;;;38.50;;
1725;SDS011;41776;48.260;8.928;2022-08-19T04:53:48;96.28;;;37.65;;
1725;SDS011;41776;48.260;8.928;2022-08-19T04:56:15;90.93;;;36.58;;
1725;SDS011;41776;48.260;8.928;2022-08-19T04:58:44;95.15;;;38.50;;
1725;SDS011;41776;48.260;8.928;2022-08-19T05:01:11;84.97;;;35.60;;
1725;SDS011;41776;48.260;8.928;2022-08-19T05:03:40;87.57;;;37.30;;
1725;SDS011;41776;48.260;8.928;2022-08-19T05:06:07;91.88;;;37.40;;
1725;SDS011;41776;48.260;8.928;2022-08-19T05:08:36;81.05;;;33.78;;
1725;SDS011;41776;48.260;8.928;2022-08-19T05:11:07;91.65;;;37.60;;
1725;SDS011;41776;48.260;8.928;2022-08-19T05:13:36;95.10;;;37.53;;
1725;SDS011;41776;48.260;8.928;2022-08-19T05:16:03;94.90;;;38.28;;
1725;SDS011;41776;48.260;8.928;2022-08-19T05:18:29;102.25;;;38.67;;
1725;SDS011;41776;48.260;8.928;2022-08-19T05:21:15;85.78;;;36.63;;
1725;SDS011;41776;48.260;8.928;2022-08-19T05:24:01;92.88;;;36.63;;
1725;SDS011;41776;48.260;8.928;2022-08-19T05:26:28;90.68;;;35.63;;
1725;SDS011;41776;48.260;8.928;2022-08-19T05:28:55;84.55;;;37.40;;
1725;SDS011;41776;48.260;8.928;2022-08-19T05:31:21;85.95;;;37.33;;
1725;SDS011;41776;48.260;8.928;2022-08-19T05:33:48;86.65;;;34.65;;
1725;SDS011;41776;48.260;8.928;2022-08-19T05:36:16;82.18;;;34.40;;
1725;SDS011;41776;48.260;8.928;2022-08-19T05:38:44;86.05;;;35.13;;
1725;SDS011;41776;48.260;8.928;2022-08-19T05:41:12;78.25;;;32.30;;
1725;SDS011;41776;48.260;8.928;2022-08-19T05:43:40;89.60;;;36.55;;
1725;SDS011;41776;48.260;8.928;2022-08-19T05:46:07;76.00;;;33.83;;
1725;SDS011;41776;48.260;8.928;2022-08-19T05:48:34;79.60;;;31.92;;
1725;SDS011;41776;48.260;8.928;2022-08-19T05:51:03;80.68;;;35.80;;
1725;SDS011;41776;48.260;8.928;2022-08-19T05:53:32;78.40;;;35.08;;
1725;SDS011;41776;48.260;8.928;2022-08-19T05:56:03;88.65;;;36.10;;
1725;SDS011;41776;48.260;8.928;2022-08-19T05:58:30;75.72;;;34.40;;
1725;SDS011;41776;48.260;8.928;2022-08-19T06:00:57;85.30;;;36.88;;
1725;SDS011;41776;48.260;8.928;2022-08-19T06:03:29;82.55;;;33.20;;
1725;SDS011;41776;48.260;8.928;2022-08-19T06:05:56;87.40;;;37.13;;
1725;SDS011;41776;48.260;8.928;2022-08-19T06:08:24;82.93;;;35.35;;
1725;SDS011;41776;48.260;8.928;2022-08-19T06:10:52;77.15;;;39.42;;
1725;SDS011;41776;48.260;8.928;2022-08-19T06:13:18;70.80;;;34.78;;
1725;SDS011;41776;48.260;8.928;2022-08-19T06:15:45;81.60;;;35.95;;
1725;SDS011;41776;48.260;8.928;2022-08-19T06:18:12;74.70;;;35.05;;
1725;SDS011;41776;48.260;8.928;2022-08-19T06:20:39;74.75;;;34.30;;
1725;SDS011;41776;48.260;8.928;2022-08-19T06:23:06;75.53;;;37.35;;
1725;SDS011;41776;48.260;8.928;2022-08-19T06:25:33;75.75;;;33.42;;
1725;SDS011;41776;48.260;8.928;2022-08-19T06:28:02;73.05;;;35.78;;
1725;SDS011;41776;48.260;8.928;2022-08-19T06:30:28;74.15;;;35.55;;
1725;SDS011;41776;48.260;8.928;2022-08-19T06:32:55;72.82;;;35.13;;
1725;SDS011;41776;48.260;8.928;2022-08-19T06:35:24;69.45;;;35.80;;
1725;SDS011;41776;48.260;8.928;2022-08-19T06:37:51;66.45;;;33.38;;
1725;SDS011;41776;48.260;8.928;2022-08-19T06:40:17;67.55;;;35.45;;
1725;SDS011;41776;48.260;8.928;2022-08-19T06:42:44;70.18;;;33.20;;
1725;SDS011;41776;48.260;8.928;2022-08-19T06:45:12;71.85;;;33.38;;
1725;SDS011;41776;48.260;8.928;2022-08-19T06:47:39;63.35;;;32.90;;
1725;SDS011;41776;48.260;8.928;2022-08-19T06:50:13;70.45;;;33.90;;
1725;SDS011;41776;48.260;8.928;2022-08-19T06:52:39;67.10;;;34.38;;
1725;SDS011;41776;48.260;8.928;2022-08-19T06:55:06;59.20;;;30.65;;
1725;SDS011;41776;48.260;8.928;2022-08-19T06:57:33;68.72;;;35.63;;
1725;SDS011;41776;48.260;8.928;2022-08-19T07:00:00;62.97;;;32.75;;
1725;SDS011;41776;48.260;8.928;2022-08-19T07:02:28;64.40;;;33.33;;
1725;SDS011;41776;48.260;8.928;2022-08-19T07:04:54;72.78;;;34.60;;
1725;SDS011;41776;48.260;8.928;2022-08-19T07:07:22;73.90;;;34.70;;
1725;SDS011;41776;48.260;8.928;2022-08-19T07:09:50;67.70;;;34.58;;
1725;SDS011;41776;48.260;8.928;2022-08-19T07:12:17;63.38;;;32.65;;
1725;SDS011;41776;48.260;8.928;2022-08-19T07:14:44;61.90;;;32.08;;
1725;SDS011;41776;48.260;8.928;2022-08-19T07:17:11;63.10;;;31.30;;
1725;SDS011;41776;48.260;8.928;2022-08-19T07:19:39;58.92;;;32.65;;
1725;SDS011;41776;48.260;8.928;2022-08-19T07:22:07;65.35;;;32.72;;
1725;SDS011;41776;48.260;8.928;2022-08-19T07:24:35;61.00;;;32.42;;
1725;SDS011;41776;48.260;8.928;2022-08-19T07:27:02;69.65;;;34.85;;
1725;SDS011;41776;48.260;8.928;2022-08-19T07:29:31;69.93;;;35.05;;
1725;SDS011;41776;48.260;8.928;2022-08-19T07:31:59;72.43;;;35.50;;
1725;SDS011;41776;48.260;8.928;2022-08-19T07:34:28;77.22;;;36.30;;
1725;SDS011;41776;48.260;8.928;2022-08-19T07:36:57;75.80;;;37.50;;
1725;SDS011;41776;48.260;8.928;2022-08-19T07:39:25;69.47;;;35.85;;
1725;SDS011;41776;48.260;8.928;2022-08-19T07:41:53;72.03;;;35.83;;
1725;SDS011;41776;48.260;8.928;2022-08-19T07:44:21;75.93;;;37.10;;
1725;SDS011;41776;48.260;8.928;2022-08-19T07:46:49;75.53;;;36.47;;
1725;SDS011;41776;48.260;8.928;2022-08-19T07:49:18;79.20;;;37.22;;
1725;SDS011;41776;48.260;8.928;2022-08-19T07:51:46;79.40;;;38.15;;
1725;SDS011;41776;48.260;8.928;2022-08-19T07:54:15;84.50;;;40.63;;
1725;SDS011;41776;48.260;8.928;2022-08-19T07:56:42;87.38;;;41.85;;
1725;SDS011;41776;48.260;8.928;2022-08-19T07:59:09;86.97;;;42.08;;
1725;SDS011;41776;48.260;8.928;2022-08-19T08:01:36;85.30;;;39.83;;
1725;SDS011;41776;48.260;8.928;2022-08-19T08:04:05;80.32;;;39.78;;
1725;SDS011;41776;48.260;8.928;2022-08-19T08:06:50;82.00;;;39.38;;
1725;SDS011;41776;48.260;8.928;2022-08-19T08:09:37;78.88;;;38.28;;
1725;SDS011;41776;48.260;8.928;2022-08-19T08:12:06;83.93;;;41.05;;
1725;SDS011;41776;48.260;8.928;2022-08-19T08:14:37;87.45;;;40.67;;
1725;SDS011;41776;48.260;8.928;2022-08-19T08:17:06;90.97;;;41.65;;
1725;SDS011;41776;48.260;8.928;2022-08-19T08:19:33;92.72;;;41.38;;
1725;SDS011;41776;48.260;8.928;2022-08-19T08:22:00;82.25;;;39.85;;
1725;SDS011;41776;48.260;8.928;2022-08-19T08:24:28;85.50;;;40.70;;
1725;SDS011;41776;48.260;8.928;2022-08-19T08:26:58;96.07;;;43.67;;
1725;SDS011;41776;48.260;8.928;2022-08-19T08:29:25;87.57;;;42.50;;
1725;SDS011;41776;48.260;8.928;2022-08-19T08:31:52;97.60;;;42.55;;
1725;SDS011;41776;48.260;8.928;2022-08-19T08:34:19;95.07;;;44.70;;
1725;SDS011;41776;48.260;8.928;2022-08-19T08:36:46;95.35;;;43.75;;
1725;SDS011;41776;48.260;8.928;2022-08-19T08:39:14;102.63;;;45.97;;
1725;SDS011;41776;48.260;8.928;2022-08-19T08:41:44;93.03;;;44.03;;
1725;SDS011;41776;48.260;8.928;2022-08-19T08:44:20;101.63;;;44.40;;
1725;SDS011;41776;48.260;8.928;2022-08-19T08:46:49;96.82;;;44.30;;
1725;SDS011;41776;48.260;8.928;2022-08-19T08:49:24;97.40;;;43.85;;
1725;SDS011;41776;48.260;8.928;2022-08-19T08:51:57;111.85;;;45.90;;
1725;SDS011;41776;48.260;8.928;2022-08-19T08:54:30;106.72;;;46.80;;
1725;SDS011;41776;48.260;8.928;2022-08-19T08:56:59;107.80;;;44.78;;
1725;SDS011;41776;48.260;8.928;2022-08-19T08:59:28;104.88;;;44.70;;
1725;SDS011;41776;48.260;8.928;2022-08-19T09:01:57;112.55;;;47.08;;
1725;SDS011;41776;48.260;8.928;2022-08-19T09:04:24;119.95;;;53.42;;
1725;SDS011;41776;48.260;8.928;2022-08-19T09:06:53;121.45;;;51.35;;
1725;SDS011;41776;48.260;8.928;2022-08-19T09:09:25;112.60;;;47.97;;
1725;SDS011;41776;48.260;8.928;2022-08-19T09:12:00;114.80;;;47.30;;
1725;SDS011;41776;48.260;8.928;2022-08-19T09:14:37;123.82;;;48.50;;
1725;SDS011;41776;48.260;8.928;2022-08-19T09:17:11;113.70;;;47.03;;
1725;SDS011;41776;48.260;8.928;2022-08-19T09:19:46;115.47;;;48.03;;
1725;SDS011;41776;48.260;8.928;2022-08-19T09:22:15;115.18;;;48.60;;
1725;SDS011;41776;48.260;8.928;2022-08-19T09:24:42;116.28;;;47.47;;
1725;SDS011;41776;48.260;8.928;2022-08-19T09:27:09;121.13;;;50.58;;
1725;SDS011;41776;48.260;8.928;2022-08-19T09:29:36;130.13;;;52.30;;
1725;SDS011;41776;48.260;8.928;2022-08-19T09:32:03;130.88;;;50.95;;
1725;SDS011;41776;48.260;8.928;2022-08-19T09:34:31;127.63;;;51.65;;
1725;SDS011;41776;48.260;8.928;2022-08-19T09:36:57;130.45;;;50.75;;
1725;SDS011;41776;48.260;8.928;2022-08-19T09:39:25;116.32;;;49.65;;
1725;SDS011;41776;48.260;8.928;2022-08-19T09:41:51;137.45;;;51.83;;
1725;SDS011;41776;48.260;8.928;2022-08-19T09:44:19;134.07;;;51.38;;
1725;SDS011;41776;48.260;8.928;2022-08-19T09:46:47;144.30;;;51.17;;
1725;SDS011;41776;48.260;8.928;2022-08-19T09:49:14;137.63;;;51.88;;
1725;SDS011;41776;48.260;8.928;2022-08-19T09:51:41;129.13;;;51.47;;
1725;SDS011;41776;48.260;8.928;2022-08-19T09:54:08;136.50;;;51.75;;
1725;SDS011;41776;48.260;8.928;2022-08-19T09:56:35;126.55;;;51.25;;
1725;SDS011;41776;48.260;8.928;2022-08-19T09:59:02;122.03;;;48.80;;
1725;SDS011;41776;48.260;8.928;2022-08-19T10:01:30;122.43;;;50.17;;
1725;SDS011;41776;48.260;8.928;2022-08-19T10:03:59;121.00;;;48.95;;
1725;SDS011;41776;48.260;8.928;2022-08-19T10:06:27;110.90;;;47.00;;
1725;SDS011;41776;48.260;8.928;2022-08-19T10:08:57;120.05;;;48.08;;
1725;SDS011;41776;48.260;8.928;2022-08-19T10:11:24;111.38;;;48.67;;
1725;SDS011;41776;48.260;8.928;2022-08-19T10:13:52;127.55;;;51.00;;
1725;SDS011;41776;48.260;8.928;2022-08-19T10:16:20;123.35;;;49.92;;
1725;SDS011;41776;48.260;8.928;2022-08-19T10:18:48;128.45;;;50.38;;
1725;SDS011;41776;48.260;8.928;2022-08-19T10:21:17;127.65;;;49.63;;
1725;SDS011;41776;48.260;8.928;2022-08-19T10:23:48;119.35;;;49.72;;
1725;SDS011;41776;48.260;8.928;2022-08-19T10:26:16;117.82;;;46.17;;
1725;SDS011;41776;48.260;8.928;2022-08-19T10:28:45;115.32;;;48.35;;
1725;SDS011;41776;48.260;8.928;2022-08-19T10:31:12;105.10;;;45.88;;
1725;SDS011;41776;48.260;8.928;2022-08-19T10:33:40;103.10;;;46.78;;
1725;SDS011;41776;48.260;8.928;2022-08-19T10:36:08;103.20;;;45.28;;
1725;SDS011;41776;48.260;8.928;2022-08-19T10:38:41;105.47;;;45.47;;
1725;SDS011;41776;48.260;8.928;2022-08-19T10:41:10;94.28;;;43.65;;
1725;SDS011;41776;48.260;8.928;2022-08-19T10:43:38;82.45;;;41.83;;
1725;SDS011;41776;48.260;8.928;2022-08-19T10:46:06;94.72;;;41.55;;
1725;SDS011;41776;48.260;8.928;2022-08-19T10:48:32;84.47;;;40.55;;
1725;SDS011;41776;48.260;8.928;2022-08-19T10:50:59;89.00;;;42.78;;
1725;SDS011;41776;48.260;8.928;2022-08-19T10:53:45;76.93;;;39.42;;
1725;SDS011;41776;48.260;8.928;2022-08-19T10:56:12;84.25;;;40.05;;
1725;SDS011;41776;48.260;8.928;2022-08-19T10:58:57;86.28;;;41.25;;
1725;SDS011;41776;48.260;8.928;2022-08-19T11:01:24;82.15;;;39.55;;
1725;SDS011;41776;48.260;8.928;2022-08-19T11:03:50;81.03;;;39.38;;
1725;SDS011;41776;48.260;8.928;2022-08-19T11:06:17;81.57;;;39.47;;
1725;SDS011;41776;48.260;8.928;2022-08-19T11:08:45;67.45;;;36.17;;
1725;SDS011;41776;48.260;8.928;2022-08-19T11:11:12;67.30;;;35.47;;
1725;SDS011;41776;48.260;8.928;2022-08-19T11:13:39;71.25;;;34.90;;
1725;SDS011;41776;48.260;8.928;2022-08-19T11:16:09;65.43;;;35.88;;
1725;SDS011;41776;48.260;8.928;2022-08-19T11:18:39;69.38;;;35.60;;
1725;SDS011;41776;48.260;8.928;2022-08-19T11:21:09;71.88;;;37.50;;
1725;SDS011;41776;48.260;8.928;2022-08-19T11:23:39;55.70;;;31.65;;
1725;SDS011;41776;48.260;8.928;2022-08-19T11:26:07;69.13;;;36.17;;
1725;SDS011;41776;48.260;8.928;2022-08-19T11:28:33;61.15;;;32.78;;
1725;SDS011;41776;48.260;8.928;2022-08-19T11:31:00;66.95;;;34.78;;
1725;SDS011;41776;48.260;8.928;2022-08-19T11:33:28;66.85;;;33.60;;
1725;SDS011;41776;48.260;8.928;2022-08-19T11:35:56;65.75;;;35.53;;
1725;SDS011;41776;48.260;8.928;2022-08-19T11:38:24;61.65;;;34.55;;
1725;SDS011;41776;48.260;8.928;2022-08-19T11:40:55;58.05;;;32.95;;
1725;SDS011;41776;48.260;8.928;2022-08-19T11:43:28;56.85;;;31.70;;
1725;SDS011;41776;48.260;8.928;2022-08-19T11:45:55;60.97;;;31.55;;
1725;SDS011;41776;48.260;8.928;2022-08-19T11:48:23;55.08;;;32.15;;
1725;SDS011;41776;48.260;8.928;2022-08-19T11:50:51;58.45;;;33.17;;
1725;SDS011;41776;48.260;8.928;2022-08-19T11:53:20;63.22;;;34.65;;
1725;SDS011;41776;48.260;8.928;2022-08-19T11:55:47;63.15;;;35.53;;
1725;SDS011;41776;48.260;8.928;2022-08-19T11:58:16;62.45;;;34.88;;
1725;SDS011;41776;48.260;8.928;2022-08-19T12:00:44;55.85;;;34.35;;
1725;SDS011;41776;48.260;8.928;2022-08-19T12:03:12;57.28;;;34.30;;
1725;SDS011;41776;48.260;8.928;2022-08-19T12:05:39;59.75;;;35.00;;
1725;SDS011;41776;48.260;8.928;2022-08-19T12:08:07;58.28;;;33.33;;
1725;SDS011;41776;48.260;8.928;2022-08-19T12:10:34;61.97;;;34.05;;
1725;SDS011;41776;48.260;8.928;2022-08-19T12:13:02;57.60;;;34.53;;
1725;SDS011;41776;48.260;8.928;2022-08-19T12:15:29;59.67;;;33.88;;
1725;SDS011;41776;48.260;8.928;2022-08-19T12:17:57;63.35;;;38.75;;
1725;SDS011;41776;48.260;8.928;2022-08-19T12:20:24;54.08;;;32.65;;
1725;SDS011;41776;48.260;8.928;2022-08-19T12:22:51;55.58;;;33.90;;
1725;SDS011;41776;48.260;8.928;2022-08-19T12:25:18;63.30;;;36.25;;
1725;SDS011;41776;48.260;8.928;2022-08-19T12:27:45;66.80;;;35.97;;
1725;SDS011;41776;48.260;8.928;2022-08-19T12:30:13;63.63;;;34.17;;
1725;SDS011;41776;48.260;8.928;2022-08-19T12:32:39;73.05;;;37.75;;
1725;SDS011;41776;48.260;8.928;2022-08-19T12:35:08;75.93;;;40.28;;
1725;SDS011;41776;48.260;8.928;2022-08-19T12:37:35;76.95;;;39.50;;
1725;SDS011;41776;48.260;8.928;2022-08-19T12:40:02;65.25;;;37.33;;
1725;SDS011;41776;48.260;8.928;2022-08-19T12:42:30;79.00;;;39.25;;
1725;SDS011;41776;48.260;8.928;2022-08-19T12:44:56;79.78;;;39.85;;
1725;SDS011;41776;48.260;8.928;2022-08-19T12:47:23;72.45;;;39.72;;
1725;SDS011;41776;48.260;8.928;2022-08-19T12:49:51;73.22;;;37.47;;
1725;SDS011;41776;48.260;8.928;2022-08-19T12:52:19;68.43;;;39.25;;
1725;SDS011;41776;48.260;8.928;2022-08-19T12:54:46;72.00;;;38.40;;
1725;SDS011;41776;48.260;8.928;2022-08-19T12:57:12;68.82;;;37.70;;
1725;SDS011;41776;48.260;8.928;2022-08-19T12:59:40;76.50;;;38.20;;
1725;SDS011;41776;48.260;8.928;2022-08-19T13:02:07;73.00;;;37.97;;
1725;SDS011;41776;48.260;8.928;2022-08-19T13:04:34;64.60;;;35.05;;
1725;SDS011;41776;48.260;8.928;2022-08-19T13:07:02;65.55;;;36.78;;
1725;SDS011;41776;48.260;8.928;2022-08-19T13:09:31;67.85;;;36.97;;
1725;SDS011;41776;48.260;8.928;2022-08-19T13:11:57;77.35;;;39.42;;
1725;SDS011;41776;48.260;8.928;2022-08-19T13:14:27;72.25;;;37.55;;
1725;SDS011;41776;48.260;8.928;2022-08-19T13:16:56;78.70;;;41.00;;
1725;SDS011;41776;48.260;8.928;2022-08-19T13:19:23;86.22;;;40.85;;
1725;SDS011;41776;48.260;8.928;2022-08-19T13:21:49;86.65;;;42.90;;
1725;SDS011;41776;48.260;8.928;2022-08-19T13:24:17;71.55;;;39.83;;
1725;SDS011;41776;48.260;8.928;2022-08-19T13:26:45;68.22;;;39.05;;
1725;SDS011;41776;48.260;8.928;2022-08-19T13:29:12;68.30;;;37.47;;
1725;SDS011;41776;48.260;8.928;2022-08-19T13:31:57;64.85;;;41.80;;
1725;SDS011;41776;48.260;8.928;2022-08-19T13:34:41;61.65;;;37.08;;
1725;SDS011;41776;48.260;8.928;2022-08-19T13:37:08;66.63;;;39.17;;
1725;SDS011;41776;48.260;8.928;2022-08-19T13:39:35;72.22;;;41.80;;
1725;SDS011;41776;48.260;8.928;2022-08-19T13:42:03;81.07;;;42.45;;
1725;SDS011;41776;48.260;8.928;2022-08-19T13:44:32;75.47;;;43.10;;
1725;SDS011;41776;48.260;8.928;2022-08-19T13:46:59;76.65;;;43.88;;
1725;SDS011;41776;48.260;8.928;2022-08-19T13:49:31;82.18;;;45.72;;
1725;SDS011;41776;48.260;8.928;2022-08-19T13:51:58;88.88;;;48.00;;
1725;SDS011;41776;48.260;8.928;2022-08-19T13:54:25;96.45;;;50.55;;
1725;SDS011;41776;48.260;8.928;2022-08-19T13:56:52;94.13;;;49.15;;
1725;SDS011;41776;48.260;8.928;2022-08-19T13:59:20;81.53;;;46.42;;
1725;SDS011;41776;48.260;8.928;2022-08-19T14:01:46;77.00;;;45.58;;
1725;SDS011;41776;48.260;8.928;2022-08-19T14:04:13;76.63;;;45.20;;
1725;SDS011;41776;48.260;8.928;2022-08-19T14:06:39;78.68;;;46.25;;
1725;SDS011;41776;48.260;8.928;2022-08-19T14:09:06;82.10;;;47.33;;
1725;SDS011;41776;48.260;8.928;2022-08-19T14:11:32;78.05;;;44.47;;
1725;SDS011;41776;48.260;8.928;2022-08-19T14:13:59;86.55;;;48.78;;
1725;SDS011;41776;48.260;8.928;2022-08-19T14:16:27;81.97;;;45.42;;
1725;SDS011;41776;48.260;8.928;2022-08-19T14:18:55;89.78;;;49.45;;
1725;SDS011;41776;48.260;8.928;2022-08-19T14:21:22;80.82;;;45.60;;
1725;SDS011;41776;48.260;8.928;2022-08-19T14:23:50;86.03;;;46.38;;
1725;SDS011;41776;48.260;8.928;2022-08-19T14:26:18;76.72;;;44.45;;
1725;SDS011;41776;48.260;8.928;2022-08-19T14:28:46;67.90;;;41.60;;
1725;SDS011;41776;48.260;8.928;2022-08-19T14:31:14;75.55;;;44.55;;
1725;SDS011;41776;48.260;8.928;2022-08-19T14:33:45;60.72;;;39.53;;
1725;SDS011;41776;48.260;8.928;2022-08-19T14:36:13;62.95;;;37.55;;